100LL.CA
Aviation Fuel Pricing for Canadians
Please upgrade your browser - Tested with IE9, FireFox, Chrome, Safari

Fuel Airports Other Help
Prices Economy Info List METAR/TAF Kneeboard Help

Reference Airport: LYNN LAKE, MB
N 56 51 52  W 101 04 34
Provinces to show:

CYYL LYNN LAKE, MB
WEATHER
METARCYYL 230400Z AUTO VRB02KT 9SM CLR M30/M32 A3007 RMK SLP237
TAFTAF CYYL 230040Z 2301/2313 VRB03KT P6SM SKC FM231200 18006KT P6SM BKN220 RMK FCST BASED ON AUTO OBS. NXT FCST BY 230700Z
OTHER SITES

FlightAware

FltPlan

Google Maps

SkyVector
FUEL
FBO 100LL
member
100LL
public
JETA MOGAS
Opr (2018-03-29)1.9001.600
Canada Flight Supplement - CYYL
(opens in new tab/window)


Please Send Updates!

Desktop Version ]  [ Mobile Version ]  [ Disclaimer ]